Time;durP1;ratioP1;P1;durP2;ratioP2;P2;SDS_P1;SDS_P2;PMS_P1;PMS_P2;Temp;Humidity;BMP_temperature;BMP_pressure;BME280_temperature;BME280_humidity;BME280_pressure;Samples;Min_cycle;Max_cycle;Signal;HPM_P1;HPM_P2
2021/01/03 00:02:05;;;;;;;;;;;;;;;22.74;26.56;98555.19;5145053;27;949;-76
2021/01/03 00:04:31;;;;;;;;;;;;;;;22.83;26.44;98546.06;5127048;27;1955;-76
2021/01/03 00:06:56;;;;;;;;;;;;;;;21.98;27.80;98546.63;5126658;27;863;-76
2021/01/03 00:09:22;;;;;;;;;;;;;;;21.36;28.77;98542.50;5144761;27;646;-76
2021/01/03 00:11:47;;;;;;;;;;;;;;;21.44;28.59;98546.78;5126711;27;870;-76
2021/01/03 00:14:13;;;;;;;;;;;;;;;21.57;28.87;98539.28;5144197;27;846;-76
2021/01/03 00:16:38;;;;;;;;;;;;;;;22.31;27.35;98541.91;5144787;27;872;-76
2021/01/03 00:19:04;;;;;;;;;;;;;;;22.55;26.93;98536.16;5144406;27;606;-76
2021/01/03 00:21:29;;;;;;;;;;;;;;;22.73;26.42;98530.88;5126749;27;686;-76
2021/01/03 00:23:55;;;;;;;;;;;;;;;22.04;27.29;98535.59;5122939;28;1976;-76
2021/01/03 00:26:20;;;;;;;;;;;;;;;21.42;28.68;98539.97;5123584;28;1017;-76
2021/01/03 00:28:45;;;;;;;;;;;;;;;21.03;29.40;98538.56;5123304;28;944;-75
2021/01/03 00:31:11;;;;;;;;;;;;;;;21.04;29.22;98526.03;5123878;28;1029;-76
2021/01/03 00:33:36;;;;;;;;;;;;;;;22.16;27.52;98537.78;5123524;28;630;-76
2021/01/03 00:36:02;;;;;;;;;;;;;;;22.61;26.90;98523.06;5123621;28;730;-76
2021/01/03 00:38:28;;;;;;;;;;;;;;;22.59;27.11;98522.72;5123493;27;637;-76
2021/01/03 00:40:53;;;;;;;;;;;;;;;22.50;26.70;98516.84;5123426;28;855;-76
2021/01/03 00:43:19;;;;;;;;;;;;;;;21.64;28.05;98517.72;5123018;28;1902;-76
2021/01/03 00:45:44;;;;;;;;;;;;;;;21.13;29.00;98516.97;5123688;28;948;-76
2021/01/03 00:48:10;;;;;;;;;;;;;;;21.58;28.30;98515.41;5123316;28;713;-76
2021/01/03 00:50:35;;;;;;;;;;;;;;;21.46;28.57;98506.75;5123425;28;689;-76
2021/01/03 00:53:01;;;;;;;;;;;;;;;21.60;28.54;98506.47;5123390;28;649;-76
2021/01/03 00:55:26;;;;;;;;;;;;;;;22.27;27.46;98497.88;5122543;28;1105;-76
2021/01/03 00:57:52;;;;;;;;;;;;;;;22.52;27.25;98505.84;5122881;28;800;-76
2021/01/03 01:00:25;;;;;;;;;;;;;;;22.71;26.67;98499.31;5122214;28;916;-76
2021/01/03 01:02:50;;;;;;;;;;;;;;;22.00;27.57;98495.19;5121933;28;1897;-76
2021/01/03 01:05:19;;;;;;;;;;;;;;;21.31;28.70;98501.31;5123135;28;757;-76
2021/01/03 01:07:44;;;;;;;;;;;;;;;21.31;29.05;98495.66;5123002;28;614;-77
2021/01/03 01:10:12;;;;;;;;;;;;;;;22.32;27.48;98501.00;5121698;28;960;-76
2021/01/03 01:12:37;;;;;;;;;;;;;;;22.81;26.49;98486.94;5121266;28;907;-76
2021/01/03 01:15:07;;;;;;;;;;;;;;;22.90;26.37;98488.38;5122664;28;888;-76
2021/01/03 01:17:32;;;;;;;;;;;;;;;21.93;27.61;98489.66;5121682;28;821;-76
2021/01/03 01:20:01;;;;;;;;;;;;;;;21.37;28.80;98498.00;5122868;28;713;-76
2021/01/03 01:22:26;;;;;;;;;;;;;;;21.19;28.92;98499.09;5126410;27;1894;-76
2021/01/03 01:24:52;;;;;;;;;;;;;;;21.51;28.26;98497.75;5142824;27;954;-76
2021/01/03 01:27:17;;;;;;;;;;;;;;;21.40;28.82;98497.13;5143398;27;827;-76
2021/01/03 01:29:46;;;;;;;;;;;;;;;21.98;28.04;98492.00;5142934;27;960;-76
2021/01/03 01:32:11;;;;;;;;;;;;;;;22.20;27.61;98493.16;5143143;27;697;-76
2021/01/03 01:34:37;;;;;;;;;;;;;;;22.69;26.60;98487.63;5143103;27;910;-77
2021/01/03 01:37:02;;;;;;;;;;;;;;;22.71;26.45;98492.84;5143077;27;582;-76
2021/01/03 01:39:27;;;;;;;;;;;;;;;22.02;27.31;98492.69;5142531;27;914;-76
2021/01/03 01:41:53;;;;;;;;;;;;;;;21.52;28.46;98488.03;5142848;27;841;-76
2021/01/03 01:44:18;;;;;;;;;;;;;;;21.63;28.09;98491.44;5142445;27;1990;-76
2021/01/03 01:46:52;;;;;;;;;;;;;;;21.29;28.64;98481.09;5142957;27;678;-76
2021/01/03 01:49:17;;;;;;;;;;;;;;;22.24;27.81;98468.38;5124853;27;654;-76
2021/01/03 01:51:45;;;;;;;;;;;;;;;22.43;27.34;98471.59;5124670;27;892;-76
2021/01/03 01:54:37;;;;;;;;;;;;;;;22.43;27.11;98465.94;5124557;27;860;-76
2021/01/03 01:57:02;;;;;;;;;;;;;;;22.69;26.68;98461.28;5138174;27;1463;-76
2021/01/03 01:59:31;;;;;;;;;;;;;;;22.85;26.50;98467.78;5142533;27;646;-76
2021/01/03 02:02:09;;;;;;;;;;;;;;;22.05;27.54;98449.31;5142543;27;644;-76
2021/01/03 02:04:35;;;;;;;;;;;;;;;21.67;28.24;98457.41;5142300;27;1971;-76
2021/01/03 02:07:03;;;;;;;;;;;;;;;21.08;29.61;98453.19;5123886;27;670;-76
2021/01/03 02:09:35;;;;;;;;;;;;;;;21.66;28.55;98444.47;5141971;27;839;-76
2021/01/03 02:12:23;;;;;;;;;;;;;;;21.47;28.72;98443.22;5142287;27;852;-76
2021/01/03 02:14:48;;;;;;;;;;;;;;;21.46;28.64;98442.44;5123882;27;825;-76
2021/01/03 02:17:14;;;;;;;;;;;;;;;22.26;27.65;98428.25;5142742;27;686;-76
2021/01/03 02:19:39;;;;;;;;;;;;;;;22.59;27.15;98434.78;5142121;27;689;-76
2021/01/03 02:22:15;;;;;;;;;;;;;;;22.68;27.13;98437.78;5141981;27;1037;-77
2021/01/03 02:24:40;;;;;;;;;;;;;;;22.44;27.26;98442.03;5123829;27;1909;-75
2021/01/03 02:27:10;;;;;;;;;;;;;;;21.89;27.89;98437.94;5141892;27;923;-76
2021/01/03 02:29:37;;;;;;;;;;;;;;;21.33;28.56;98442.25;5123759;27;866;-74
2021/01/03 02:32:02;;;;;;;;;;;;;;;20.91;29.49;98431.66;5124345;27;675;-75
2021/01/03 02:34:29;;;;;;;;;;;;;;;21.84;28.48;98425.88;5123912;27;599;-76
2021/01/03 02:36:56;;;;;;;;;;;;;;;22.47;27.40;98413.56;5124308;27;733;-76
2021/01/03 02:39:31;;;;;;;;;;;;;;;22.56;27.11;98408.09;5123591;27;994;-76
2021/01/03 02:41:57;;;;;;;;;;;;;;;22.44;27.26;98410.84;5141638;27;849;-75
2021/01/03 02:44:23;;;;;;;;;;;;;;;21.87;27.96;98400.75;5123851;27;1910;-75
2021/01/03 02:46:49;;;;;;;;;;;;;;;20.67;29.64;98411.84;5124058;27;650;-76
2021/01/03 02:49:14;;;;;;;;;;;;;;;21.20;28.73;98404.47;5123134;27;1273;-76
2021/01/03 02:51:40;;;;;;;;;;;;;;;21.42;28.84;98404.09;5123473;27;801;-76
2021/01/03 02:54:06;;;;;;;;;;;;;;;21.78;28.44;98399.31;5141253;27;860;-76
2021/01/03 02:56:31;;;;;;;;;;;;;;;22.27;27.86;98388.13;5141256;27;919;-76
2021/01/03 02:58:57;;;;;;;;;;;;;;;22.67;27.19;98390.81;5141217;27;920;-76
2021/01/03 03:01:22;;;;;;;;;;;;;;;22.45;27.23;98389.75;5141682;27;712;-76
2021/01/03 03:03:47;;;;;;;;;;;;;;;22.06;27.74;98385.75;5141245;27;1897;-76
2021/01/03 03:06:13;;;;;;;;;;;;;;;21.37;29.01;98387.59;5141533;27;606;-76
2021/01/03 03:08:38;;;;;;;;;;;;;;;21.03;29.46;98391.44;5141003;27;1015;-75
2021/01/03 03:11:04;;;;;;;;;;;;;;;21.72;28.68;98389.72;5141212;27;847;-76
2021/01/03 03:13:29;;;;;;;;;;;;;;;22.35;27.73;98392.41;5141007;27;845;-76
2021/01/03 03:15:54;;;;;;;;;;;;;;;22.47;27.60;98396.56;5141462;27;753;-76
2021/01/03 03:18:20;;;;;;;;;;;;;;;22.47;27.02;98393.72;5140950;27;678;-76
2021/01/03 03:20:47;;;;;;;;;;;;;;;22.18;27.82;98382.28;5141187;27;697;-75
2021/01/03 03:23:12;;;;;;;;;;;;;;;21.90;28.00;98389.34;5140599;27;1970;-76
2021/01/03 03:25:38;;;;;;;;;;;;;;;21.32;28.79;98389.69;5140896;28;974;-76
2021/01/03 03:28:03;;;;;;;;;;;;;;;21.58;28.68;98384.34;5140906;28;763;-76
2021/01/03 03:30:29;;;;;;;;;;;;;;;22.04;28.30;98389.03;5141236;28;689;-76
2021/01/03 03:32:55;;;;;;;;;;;;;;;22.51;27.20;98393.66;5140937;28;732;-76
2021/01/03 03:35:21;;;;;;;;;;;;;;;22.69;27.18;98394.03;5141046;28;701;-76
2021/01/03 03:37:46;;;;;;;;;;;;;;;22.70;26.78;98395.63;5123079;28;944;-76
2021/01/03 03:40:12;;;;;;;;;;;;;;;21.93;27.84;98393.34;5140842;28;818;-76
2021/01/03 03:42:38;;;;;;;;;;;;;;;21.16;29.22;98398.06;5140703;28;1893;-76
2021/01/03 03:45:04;;;;;;;;;;;;;;;21.55;28.48;98390.88;5140819;28;617;-76
2021/01/03 03:47:29;;;;;;;;;;;;;;;21.54;28.66;98380.78;5141133;28;607;-76
2021/01/03 03:49:55;;;;;;;;;;;;;;;21.37;28.96;98385.56;5140819;28;674;-76
2021/01/03 03:52:20;;;;;;;;;;;;;;;21.74;28.63;98381.56;5140437;28;853;-77
2021/01/03 03:54:46;;;;;;;;;;;;;;;22.24;27.81;98385.38;5140507;28;918;-76
2021/01/03 03:57:11;;;;;;;;;;;;;;;22.55;27.03;98388.69;5140767;28;938;-76
2021/01/03 03:59:37;;;;;;;;;;;;;;;22.68;26.92;98375.38;5140605;28;777;-76
2021/01/03 04:02:02;;;;;;;;;;;;;;;22.76;26.98;98379.66;5140859;28;714;-76
2021/01/03 04:04:28;;;;;;;;;;;;;;;21.92;28.06;98384.03;5140554;28;1988;-76
2021/01/03 04:06:59;;;;;;;;;;;;;;;21.62;28.58;98378.63;5140783;28;851;-76
2021/01/03 04:09:25;;;;;;;;;;;;;;;21.05;29.34;98386.94;5140402;28;888;-76
2021/01/03 04:11:54;;;;;;;;;;;;;;;21.75;28.45;98382.38;5140783;28;959;-76
2021/01/03 04:14:21;;;;;;;;;;;;;;;21.35;28.98;98378.72;5140544;28;718;-76
2021/01/03 04:16:50;;;;;;;;;;;;;;;21.24;29.40;98376.91;5140679;28;641;-76
2021/01/03 04:19:15;;;;;;;;;;;;;;;21.93;28.35;98382.81;5140640;28;590;-76
2021/01/03 04:21:41;;;;;;;;;;;;;;;22.47;27.19;98375.91;5122504;28;844;-76
2021/01/03 04:24:06;;;;;;;;;;;;;;;22.40;27.32;98378.94;5139964;28;1970;-76
2021/01/03 04:26:32;;;;;;;;;;;;;;;22.53;27.14;98385.50;5122841;28;1053;-76
2021/01/03 04:28:58;;;;;;;;;;;;;;;21.66;28.29;98379.31;5140356;28;682;-76
2021/01/03 04:31:23;;;;;;;;;;;;;;;21.30;29.05;98372.38;5142921;27;697;-76
2021/01/03 04:33:48;;;;;;;;;;;;;;;21.09;29.25;98381.25;5144140;27;642;-76
2021/01/03 04:36:14;;;;;;;;;;;;;;;21.57;28.81;98371.44;5143888;27;961;-76
2021/01/03 04:38:40;;;;;;;;;;;;;;;21.80;28.67;98385.47;5125945;27;963;-75
2021/01/03 04:41:05;;;;;;;;;;;;;;;22.49;27.62;98384.81;5144364;27;990;-76
2021/01/03 04:43:31;;;;;;;;;;;;;;;22.67;27.06;98385.16;5143790;27;1976;-76
2021/01/03 04:46:03;;;;;;;;;;;;;;;22.51;27.24;98382.31;5144114;27;737;-76
2021/01/03 04:48:30;;;;;;;;;;;;;;;21.10;29.20;98394.16;5126050;27;682;-76
2021/01/03 04:50:58;;;;;;;;;;;;;;;21.59;28.47;98388.78;5125963;27;849;-76
2021/01/03 04:53:26;;;;;;;;;;;;;;;21.16;29.20;98385.97;5143626;27;936;-75
2021/01/03 04:56:12;;;;;;;;;;;;;;;21.95;28.45;98385.19;5143711;27;962;-76
2021/01/03 04:58:45;;;;;;;;;;;;;;;22.39;27.77;98386.66;5143064;27;1046;-76
2021/01/03 05:01:29;;;;;;;;;;;;;;;22.53;27.04;98388.31;5143629;27;609;-76
2021/01/03 05:03:57;;;;;;;;;;;;;;;21.55;28.47;98379.53;5143583;27;1901;-76
2021/01/03 05:06:26;;;;;;;;;;;;;;;21.40;28.87;98383.91;5125803;27;970;-76
2021/01/03 05:08:52;;;;;;;;;;;;;;;21.27;29.06;98398.66;5125749;27;972;-76
2021/01/03 05:11:19;;;;;;;;;;;;;;;21.66;29.00;98390.66;5143459;27;829;-76
2021/01/03 05:13:59;;;;;;;;;;;;;;;22.15;27.99;98388.81;5143409;27;614;-76
2021/01/03 05:16:24;;;;;;;;;;;;;;;22.49;27.47;98390.47;5125831;27;641;-76
2021/01/03 05:18:50;;;;;;;;;;;;;;;22.76;27.08;98388.16;5143186;27;698;-76
2021/01/03 05:21:15;;;;;;;;;;;;;;;22.43;27.02;98392.22;5143025;27;849;-76
2021/01/03 05:23:56;;;;;;;;;;;;;;;21.41;29.04;98382.69;5124943;27;1910;-76
2021/01/03 05:26:39;;;;;;;;;;;;;;;20.92;29.61;98393.66;5143215;27;868;-76
2021/01/03 05:29:05;;;;;;;;;;;;;;;21.84;28.10;98391.88;5143016;27;709;-75
2021/01/03 05:31:30;;;;;;;;;;;;;;;21.41;28.74;98391.19;5125535;27;649;-76
2021/01/03 05:34:07;;;;;;;;;;;;;;;21.43;29.05;98394.34;5125152;27;677;-76
2021/01/03 05:36:44;;;;;;;;;;;;;;;21.38;29.20;98389.19;5125189;27;829;-75
2021/01/03 05:39:28;;;;;;;;;;;;;;;21.84;28.28;98397.53;5124102;27;881;-75
2021/01/03 05:41:54;;;;;;;;;;;;;;;22.36;27.55;98391.16;5143142;27;685;-76
2021/01/03 05:44:24;;;;;;;;;;;;;;;22.67;27.05;98382.31;5142700;27;1909;-76
2021/01/03 05:46:51;;;;;;;;;;;;;;;22.38;27.29;98384.22;5125016;27;662;-76
2021/01/03 05:49:24;;;;;;;;;;;;;;;21.07;29.32;98389.34;5124964;27;626;-76
2021/01/03 05:51:51;;;;;;;;;;;;;;;21.65;28.46;98394.72;5142495;27;815;-76
2021/01/03 05:54:30;;;;;;;;;;;;;;;21.72;28.77;98391.75;5124491;27;850;-76
2021/01/03 05:56:56;;;;;;;;;;;;;;;22.19;27.95;98395.22;5124882;27;674;-76
2021/01/03 05:59:26;;;;;;;;;;;;;;;22.51;27.13;98399.31;5124744;27;1199;-76
2021/01/03 06:02:04;;;;;;;;;;;;;;;22.60;27.01;98396.69;5142524;27;702;-76
2021/01/03 06:04:29;;;;;;;;;;;;;;;21.95;27.80;98396.53;5142264;27;1905;-76
2021/01/03 06:06:59;;;;;;;;;;;;;;;21.75;28.01;98394.50;5142161;27;940;-76
2021/01/03 06:09:35;;;;;;;;;;;;;;;21.23;28.89;98397.94;5123588;27;887;-76
2021/01/03 06:12:39;;;;;;;;;;;;;;;21.59;28.75;98397.25;5124623;27;1025;-76
2021/01/03 06:15:05;;;;;;;;;;;;;;;21.00;29.63;98390.28;5059624;28;1225;-76
2021/01/03 06:17:43;;;;;;;;;;;;;;;22.00;28.25;98387.50;5043034;28;746;-76
2021/01/03 06:20:19;;;;;;;;;;;;;;;22.47;27.49;98387.25;5104875;27;850;-76
2021/01/03 06:22:48;;;;;;;;;;;;;;;22.60;27.20;98385.34;5141752;27;1894;-76
2021/01/03 06:25:23;;;;;;;;;;;;;;;22.61;27.16;98386.94;5141835;27;917;-76
2021/01/03 06:28:00;;;;;;;;;;;;;;;22.32;27.20;98381.91;5142029;27;584;-76
2021/01/03 06:30:26;;;;;;;;;;;;;;;21.41;28.55;98385.50;5124134;27;649;-76
2021/01/03 06:32:51;;;;;;;;;;;;;;;21.40;28.84;98386.72;5141965;27;598;-76
2021/01/03 06:35:20;;;;;;;;;;;;;;;21.33;29.07;98396.97;5142021;27;630;-76
2021/01/03 06:37:55;;;;;;;;;;;;;;;21.92;28.40;98403.06;5141616;27;1059;-76
2021/01/03 06:40:25;;;;;;;;;;;;;;;22.28;27.55;98391.78;5123663;27;922;-76
2021/01/03 06:43:09;;;;;;;;;;;;;;;22.42;27.44;98390.63;5124211;27;1911;-76
2021/01/03 06:45:35;;;;;;;;;;;;;;;21.51;28.27;98384.50;5141963;27;678;-76
2021/01/03 06:51:38;;;;;;;;;;;;;;;21.42;28.86;98392.75;5141470;27;900;-76
2021/01/03 06:54:23;;;;;;;;;;;;;;;21.72;28.41;98395.38;5140614;27;843;-76
2021/01/03 06:56:53;;;;;;;;;;;;;;;22.39;27.32;98397.19;5141636;27;733;-76
2021/01/03 06:59:21;;;;;;;;;;;;;;;22.81;26.91;98404.66;5123565;27;693;-76
2021/01/03 07:01:47;;;;;;;;;;;;;;;22.77;26.62;98406.78;5141607;27;634;-76
2021/01/03 07:04:19;;;;;;;;;;;;;;;21.33;28.43;98413.13;5123204;27;1897;-76
2021/01/03 07:06:44;;;;;;;;;;;;;;;21.58;28.47;98407.00;5141206;27;956;-76
2021/01/03 07:09:10;;;;;;;;;;;;;;;21.26;28.47;98405.56;5123366;27;1040;-76
2021/01/03 07:11:46;;;;;;;;;;;;;;;22.03;27.97;98397.97;5141462;27;600;-76
2021/01/03 07:14:32;;;;;;;;;;;;;;;22.29;27.32;98399.84;5141256;27;751;-76
2021/01/03 07:17:03;;;;;;;;;;;;;;;22.58;26.89;98399.13;5127114;27;1091;-76
2021/01/03 07:19:35;;;;;;;;;;;;;;;22.67;26.86;98402.16;5140873;27;885;-76
2021/01/03 07:22:19;;;;;;;;;;;;;;;21.45;28.38;98398.38;5140797;27;1142;-76
2021/01/03 07:24:51;;;;;;;;;;;;;;;21.02;28.75;98404.78;5140910;27;1968;-76
2021/01/03 07:27:25;;;;;;;;;;;;;;;21.57;28.48;98399.75;5141138;28;682;-76
2021/01/03 07:30:00;;;;;;;;;;;;;;;21.60;28.44;98398.84;5141044;28;594;-76
2021/01/03 07:32:32;;;;;;;;;;;;;;;21.36;29.02;98400.16;5123418;28;594;-76
2021/01/03 07:34:58;;;;;;;;;;;;;;;21.43;28.65;98391.53;5140773;28;815;-76
2021/01/03 07:37:27;;;;;;;;;;;;;;;21.91;28.12;98398.63;5122391;28;918;-76
2021/01/03 07:40:06;;;;;;;;;;;;;;;22.32;27.57;98393.25;5140885;28;936;-76
2021/01/03 07:42:32;;;;;;;;;;;;;;;22.53;27.10;98396.84;5140908;28;725;-76
2021/01/03 07:44:58;;;;;;;;;;;;;;;21.84;28.01;98393.91;5140731;28;633;-76
2021/01/03 07:47:52;;;;;;;;;;;;;;;21.85;27.88;98396.31;5122734;28;813;-76
2021/01/03 07:50:26;;;;;;;;;;;;;;;21.38;28.94;98403.34;5123006;28;1030;-76
2021/01/03 07:52:59;;;;;;;;;;;;;;;21.77;28.55;98397.72;5140423;28;893;-76
2021/01/03 07:55:26;;;;;;;;;;;;;;;22.33;27.27;98394.88;5123056;28;714;-76
2021/01/03 07:57:52;;;;;;;;;;;;;;;22.29;27.58;98394.16;5140788;28;650;-76
2021/01/03 08:00:18;;;;;;;;;;;;;;;22.63;27.14;98402.25;5141015;28;619;-76
2021/01/03 08:02:46;;;;;;;;;;;;;;;22.61;26.60;98403.94;5140937;28;1985;-76
2021/01/03 08:05:11;;;;;;;;;;;;;;;21.82;27.92;98404.91;5123394;27;1089;-76
2021/01/03 08:07:37;;;;;;;;;;;;;;;21.46;28.53;98411.28;5144825;27;891;-76
2021/01/03 08:10:06;;;;;;;;;;;;;;;20.70;29.90;98410.19;5144455;27;812;-76
2021/01/03 08:12:32;;;;;;;;;;;;;;;22.12;28.18;98403.84;5144635;27;638;-76
2021/01/03 08:15:02;;;;;;;;;;;;;;;22.50;27.15;98400.56;5126873;27;610;-76
2021/01/03 08:17:29;;;;;;;;;;;;;;;22.66;27.22;98406.25;5126820;27;693;-75
2021/01/03 08:19:54;;;;;;;;;;;;;;;22.52;27.11;98400.91;5126192;27;971;-76
2021/01/03 08:22:26;;;;;;;;;;;;;;;21.88;27.88;98391.03;5126115;27;1302;-76
2021/01/03 08:24:52;;;;;;;;;;;;;;;21.43;28.31;98388.69;5144371;27;1930;-76
2021/01/03 08:27:18;;;;;;;;;;;;;;;21.71;27.86;98396.63;5126192;27;862;-76
2021/01/03 08:29:44;;;;;;;;;;;;;;;21.56;28.06;98381.16;5126377;27;594;-76
2021/01/03 08:32:11;;;;;;;;;;;;;;;21.90;28.53;98382.88;5126532;27;641;-76
2021/01/03 08:34:37;;;;;;;;;;;;;;;22.33;27.52;98389.22;5143877;27;847;-76
2021/01/03 08:37:13;;;;;;;;;;;;;;;22.74;27.11;98379.31;5143917;27;852;-76
2021/01/03 08:39:38;;;;;;;;;;;;;;;22.61;27.11;98375.56;5144021;27;993;-76
2021/01/03 08:42:04;;;;;;;;;;;;;;;21.90;27.99;98372.34;5144176;27;660;-76
2021/01/03 08:44:34;;;;;;;;;;;;;;;21.30;28.65;98368.75;5126237;27;1964;-76
2021/01/03 08:47:04;;;;;;;;;;;;;;;21.03;28.91;98382.94;5126356;27;698;-76
2021/01/03 08:49:30;;;;;;;;;;;;;;;21.84;29.00;98379.75;5143612;27;881;-76
2021/01/03 08:52:05;;;;;;;;;;;;;;;22.44;27.86;98376.81;5143745;27;870;-76
2021/01/03 08:54:31;;;;;;;;;;;;;;;22.51;27.12;98370.97;5126123;27;867;-76
2021/01/03 08:56:56;;;;;;;;;;;;;;;22.67;27.06;98362.44;5144029;27;583;-76
2021/01/03 08:59:22;;;;;;;;;;;;;;;21.47;28.55;98355.47;5125476;27;798;-76
2021/01/03 09:01:47;;;;;;;;;;;;;;;21.44;28.47;98357.09;5144163;27;662;-76
2021/01/03 09:04:18;;;;;;;;;;;;;;;21.45;28.56;98358.72;5143219;27;1914;-76
2021/01/03 09:06:44;;;;;;;;;;;;;;;21.83;29.00;98350.63;5124906;27;937;-76
2021/01/03 09:09:14;;;;;;;;;;;;;;;22.29;27.94;98357.31;5125590;27;997;-76
2021/01/03 09:11:48;;;;;;;;;;;;;;;22.62;27.37;98346.75;5143879;27;721;-76
2021/01/03 09:14:16;;;;;;;;;;;;;;;22.72;27.01;98353.41;5125390;27;837;-76
2021/01/03 09:16:45;;;;;;;;;;;;;;;21.88;28.01;98354.19;5143236;27;662;-76
2021/01/03 09:19:13;;;;;;;;;;;;;;;21.84;28.03;98357.09;5142988;27;839;-76
2021/01/03 09:22:08;;;;;;;;;;;;;;;21.64;28.17;98353.47;5143293;27;804;-76
2021/01/03 09:24:34;;;;;;;;;;;;;;;21.73;28.81;98357.31;5125517;27;1963;-76
2021/01/03 09:27:00;;;;;;;;;;;;;;;22.32;27.90;98356.41;5125486;27;652;-76
2021/01/03 09:29:28;;;;;;;;;;;;;;;22.60;27.38;98357.78;5125283;27;1328;-76
2021/01/03 09:31:58;;;;;;;;;;;;;;;22.72;26.90;98347.75;5125488;27;643;-76
2021/01/03 09:34:47;;;;;;;;;;;;;;;22.51;27.32;98348.28;5125161;27;915;-76
2021/01/03 09:37:25;;;;;;;;;;;;;;;21.48;28.66;98334.41;5104348;27;1120;-76
2021/01/03 09:40:02;;;;;;;;;;;;;;;21.38;28.79;98338.25;5142952;27;623;-76
2021/01/03 09:42:27;;;;;;;;;;;;;;;21.55;28.81;98351.22;5142952;27;602;-76
2021/01/03 09:45:05;;;;;;;;;;;;;;;22.04;28.75;98348.56;5142741;27;1901;-76
2021/01/03 09:47:44;;;;;;;;;;;;;;;22.55;27.33;98337.66;5142981;27;552;-76
2021/01/03 09:50:12;;;;;;;;;;;;;;;22.55;27.42;98338.44;5142477;27;878;-76
2021/01/03 09:52:43;;;;;;;;;;;;;;;22.72;27.27;98333.56;5142706;27;860;-76
2021/01/03 09:55:11;;;;;;;;;;;;;;;21.74;28.43;98319.25;5124181;27;795;-76
2021/01/03 09:57:39;;;;;;;;;;;;;;;21.39;28.76;98320.03;5125006;27;673;-76
2021/01/03 10:00:06;;;;;;;;;;;;;;;21.12;29.58;98312.44;5124570;27;717;-75
2021/01/03 10:02:31;;;;;;;;;;;;;;;21.19;29.38;98315.16;5142818;27;638;-76
2021/01/03 10:04:57;;;;;;;;;;;;;;;21.73;28.87;98309.19;5141939;27;1901;-76
2021/01/03 10:07:26;;;;;;;;;;;;;;;22.25;28.14;98308.41;5142175;27;938;-76
2021/01/03 10:09:52;;;;;;;;;;;;;;;22.71;27.37;98306.44;5142512;27;977;-76
2021/01/03 10:12:18;;;;;;;;;;;;;;;22.60;27.37;98303.09;5142364;27;642;-76
2021/01/03 10:14:43;;;;;;;;;;;;;;;21.63;28.53;98290.38;5142272;27;652;-76
2021/01/03 10:17:12;;;;;;;;;;;;;;;21.51;28.73;98288.25;5142280;27;664;-76
2021/01/03 10:19:38;;;;;;;;;;;;;;;21.32;29.19;98287.81;5123473;27;911;-76
2021/01/03 10:22:03;;;;;;;;;;;;;;;21.30;29.44;98287.47;5141750;27;1204;-76
2021/01/03 10:24:29;;;;;;;;;;;;;;;22.23;28.28;98285.38;5141908;27;1905;-76
2021/01/03 10:27:04;;;;;;;;;;;;;;;22.64;27.48;98283.94;5142248;27;642;-76
2021/01/03 10:29:30;;;;;;;;;;;;;;;22.69;26.98;98286.25;5141183;27;621;-76
2021/01/03 10:31:56;;;;;;;;;;;;;;;22.10;27.80;98281.63;5124196;27;614;-76
2021/01/03 10:34:21;;;;;;;;;;;;;;;21.72;28.49;98281.31;5141515;27;1051;-76
2021/01/03 10:36:47;;;;;;;;;;;;;;;21.25;29.15;98276.63;5141631;27;892;-76
2021/01/03 10:39:13;;;;;;;;;;;;;;;21.18;29.65;98276.75;5141693;27;967;-76
2021/01/03 10:41:38;;;;;;;;;;;;;;;22.12;28.71;98270.66;5123363;27;817;-76
2021/01/03 10:44:04;;;;;;;;;;;;;;;22.62;27.46;98269.38;5141714;27;1957;-76
2021/01/03 10:46:30;;;;;;;;;;;;;;;22.74;27.16;98265.84;5141859;27;647;-76
2021/01/03 10:48:55;;;;;;;;;;;;;;;22.06;28.22;98267.53;5141509;27;863;-76
2021/01/03 10:51:33;;;;;;;;;;;;;;;21.78;28.12;98257.69;5141466;27;897;-76
2021/01/03 10:53:58;;;;;;;;;;;;;;;21.16;29.09;98256.59;5123705;27;851;-76
2021/01/03 10:56:24;;;;;;;;;;;;;;;21.67;28.28;98251.47;5123852;27;619;-76
2021/01/03 10:58:50;;;;;;;;;;;;;;;21.96;29.24;98242.28;5123612;27;698;-76
2021/01/03 11:01:15;;;;;;;;;;;;;;;22.49;28.00;98255.16;5141740;27;677;-76
2021/01/03 11:03:41;;;;;;;;;;;;;;;22.49;27.67;98252.31;5140867;27;1906;-76
2021/01/03 11:06:06;;;;;;;;;;;;;;;22.17;28.04;98255.94;5141195;27;899;-75
2021/01/03 11:08:31;;;;;;;;;;;;;;;21.79;28.70;98253.59;5141263;27;1016;-76
2021/01/03 11:10:57;;;;;;;;;;;;;;;21.49;29.06;98249.03;5141442;27;713;-76
2021/01/03 11:13:22;;;;;;;;;;;;;;;21.39;29.08;98243.59;5141147;27;710;-76
2021/01/03 11:15:48;;;;;;;;;;;;;;;21.68;29.52;98247.38;5141416;27;666;-76
2021/01/03 11:18:13;;;;;;;;;;;;;;;22.41;28.01;98244.44;5140781;27;910;-75
2021/01/03 11:20:39;;;;;;;;;;;;;;;22.38;27.96;98231.13;5140797;27;896;-76
2021/01/03 11:23:04;;;;;;;;;;;;;;;22.55;27.64;98236.34;5140866;27;1963;-76
2021/01/03 11:25:30;;;;;;;;;;;;;;;22.81;27.31;98242.94;5141176;27;634;-76
2021/01/03 11:27:58;;;;;;;;;;;;;;;22.75;27.24;98229.75;5141049;28;658;-76
2021/01/03 11:30:23;;;;;;;;;;;;;;;21.97;28.04;98224.88;5141200;28;614;-76
2021/01/03 11:32:49;;;;;;;;;;;;;;;21.29;28.90;98226.38;5122476;28;851;-76
2021/01/03 11:35:15;;;;;;;;;;;;;;;21.62;28.42;98220.84;5140720;28;871;-75
2021/01/03 11:37:40;;;;;;;;;;;;;;;21.38;29.07;98220.16;5140912;28;855;-76
2021/01/03 11:40:06;;;;;;;;;;;;;;;21.63;28.98;98228.09;5143604;27;634;-76
2021/01/03 11:42:33;;;;;;;;;;;;;;;21.36;29.48;98230.34;5126644;27;821;-76
2021/01/03 11:44:58;;;;;;;;;;;;;;;21.60;29.22;98234.63;5126491;27;1898;-76
2021/01/03 11:47:23;;;;;;;;;;;;;;;21.72;29.44;98219.78;5145026;27;1075;-75
2021/01/03 11:49:49;;;;;;;;;;;;;;;22.45;27.88;98222.47;5144682;27;907;-76
2021/01/03 11:52:14;;;;;;;;;;;;;;;22.48;27.85;98225.19;5127202;27;877;-77
2021/01/03 11:54:40;;;;;;;;;;;;;;;22.59;27.76;98224.91;5145301;27;602;-76
2021/01/03 11:57:06;;;;;;;;;;;;;;;22.05;27.83;98220.59;5145043;27;717;-76
2021/01/03 11:59:31;;;;;;;;;;;;;;;21.94;28.45;98222.91;5144903;27;622;-76
2021/01/03 12:01:57;;;;;;;;;;;;;;;21.68;28.44;98210.56;5145048;27;859;-76
2021/01/03 12:04:23;;;;;;;;;;;;;;;21.41;29.30;98215.66;5126022;27;1898;-76
2021/01/03 12:06:52;;;;;;;;;;;;;;;21.61;29.98;98218.47;5127154;27;963;-76
2021/01/03 12:09:18;;;;;;;;;;;;;;;22.48;28.07;98219.50;5127249;27;593;-76
2021/01/03 12:11:43;;;;;;;;;;;;;;;22.58;27.97;98235.44;5144658;27;677;-76
2021/01/03 12:14:09;;;;;;;;;;;;;;;22.59;27.43;98224.91;5144443;27;574;-76
2021/01/03 12:16:34;;;;;;;;;;;;;;;21.74;29.01;98233.50;5144405;27;1002;-76
2021/01/03 12:18:59;;;;;;;;;;;;;;;21.52;29.31;98227.53;5144135;27;903;-76
2021/01/03 12:21:27;;;;;;;;;;;;;;;21.57;29.25;98218.53;5144556;27;835;-76
2021/01/03 12:23:52;;;;;;;;;;;;;;;21.55;29.75;98227.47;5144178;27;1960;-76
2021/01/03 12:26:18;;;;;;;;;;;;;;;22.21;28.36;98234.00;5144434;27;646;-76
2021/01/03 12:28:43;;;;;;;;;;;;;;;22.59;27.92;98230.59;5144305;27;658;-76
2021/01/03 12:31:09;;;;;;;;;;;;;;;22.63;27.68;98232.06;5144284;27;871;-76
2021/01/03 12:33:34;;;;;;;;;;;;;;;22.01;28.46;98236.88;5143851;27;843;-76
2021/01/03 12:36:00;;;;;;;;;;;;;;;21.42;29.11;98234.25;5144210;27;1002;-76
2021/01/03 12:38:25;;;;;;;;;;;;;;;21.75;28.55;98230.22;5144174;27;654;-76
2021/01/03 12:40:51;;;;;;;;;;;;;;;20.50;30.58;98232.03;5144473;27;682;-76
2021/01/03 12:43:16;;;;;;;;;;;;;;;22.15;28.77;98230.09;5143918;27;1909;-76
2021/01/03 12:45:42;;;;;;;;;;;;;;;22.58;27.82;98240.31;5143723;27;863;-76
2021/01/03 12:48:07;;;;;;;;;;;;;;;22.82;27.35;98241.69;5143614;27;956;-76
2021/01/03 12:50:33;;;;;;;;;;;;;;;22.68;27.17;98233.56;5143706;27;909;-76
2021/01/03 12:52:58;;;;;;;;;;;;;;;21.79;28.81;98233.78;5143368;27;702;-76
2021/01/03 12:55:24;;;;;;;;;;;;;;;21.16;29.86;98245.28;5143867;27;692;-76
2021/01/03 12:57:49;;;;;;;;;;;;;;;21.19;29.81;98233.09;5143809;27;681;-76
2021/01/03 13:00:15;;;;;;;;;;;;;;;21.51;29.33;98242.94;5143498;27;991;-76
2021/01/03 13:02:40;;;;;;;;;;;;;;;21.84;29.49;98238.91;5125469;27;928;-76
2021/01/03 13:05:06;;;;;;;;;;;;;;;22.22;28.51;98244.09;5143542;27;1968;-76
2021/01/03 13:07:31;;;;;;;;;;;;;;;22.62;27.86;98253.16;5144013;27;689;-76
2021/01/03 13:09:57;;;;;;;;;;;;;;;22.84;27.23;98247.69;5143374;27;733;-76
2021/01/03 13:12:22;;;;;;;;;;;;;;;21.81;29.02;98262.47;5143560;27;686;-76
2021/01/03 13:14:48;;;;;;;;;;;;;;;21.66;28.92;98260.38;5143124;27;997;-75